sensor_id;sensor_type;location;lat;lon;timestamp;P1;durP1;ratioP1;P2;durP2;ratioP2
22628;SDS011;11481;53.694;9.910;2022-08-11T00:02:35;3.05;;;1.20;;
22628;SDS011;11481;53.694;9.910;2022-08-11T00:05:07;2.95;;;1.45;;
22628;SDS011;11481;53.694;9.910;2022-08-11T00:07:46;2.78;;;1.15;;
22628;SDS011;11481;53.694;9.910;2022-08-11T00:10:19;1.60;;;1.15;;
22628;SDS011;11481;53.694;9.910;2022-08-11T00:12:51;4.20;;;1.30;;
22628;SDS011;11481;53.694;9.910;2022-08-11T00:15:18;2.05;;;1.25;;
22628;SDS011;11481;53.694;9.910;2022-08-11T00:17:46;1.98;;;1.17;;
22628;SDS011;11481;53.694;9.910;2022-08-11T00:20:14;5.47;;;1.50;;
22628;SDS011;11481;53.694;9.910;2022-08-11T00:22:43;4.15;;;1.17;;
22628;SDS011;11481;53.694;9.910;2022-08-11T00:25:16;2.00;;;1.20;;
22628;SDS011;11481;53.694;9.910;2022-08-11T00:27:44;2.15;;;1.33;;
22628;SDS011;11481;53.694;9.910;2022-08-11T00:30:13;2.03;;;1.20;;
22628;SDS011;11481;53.694;9.910;2022-08-11T00:32:42;3.63;;;1.58;;
22628;SDS011;11481;53.694;9.910;2022-08-11T00:35:11;2.17;;;1.05;;
22628;SDS011;11481;53.694;9.910;2022-08-11T00:38:01;1.88;;;1.20;;
22628;SDS011;11481;53.694;9.910;2022-08-11T00:41:15;2.90;;;1.13;;
22628;SDS011;11481;53.694;9.910;2022-08-11T01:00:31;3.40;;;1.52;;
22628;SDS011;11481;53.694;9.910;2022-08-11T01:03:15;2.63;;;1.42;;
22628;SDS011;11481;53.694;9.910;2022-08-11T01:14:49;2.63;;;1.35;;
22628;SDS011;11481;53.694;9.910;2022-08-11T01:26:25;1.75;;;1.10;;
22628;SDS011;11481;53.694;9.910;2022-08-11T01:29:09;2.83;;;1.27;;
22628;SDS011;11481;53.694;9.910;2022-08-11T01:32:47;2.60;;;1.17;;
22628;SDS011;11481;53.694;9.910;2022-08-11T01:50:24;4.03;;;1.73;;
22628;SDS011;11481;53.694;9.910;2022-08-11T01:53:00;5.97;;;1.65;;
22628;SDS011;11481;53.694;9.910;2022-08-11T01:55:48;2.05;;;1.17;;
22628;SDS011;11481;53.694;9.910;2022-08-11T02:04:33;2.67;;;1.10;;
22628;SDS011;11481;53.694;9.910;2022-08-11T02:07:32;2.50;;;1.45;;
22628;SDS011;11481;53.694;9.910;2022-08-11T02:19:19;2.53;;;1.27;;
22628;SDS011;11481;53.694;9.910;2022-08-11T02:25:37;3.00;;;1.48;;
22628;SDS011;11481;53.694;9.910;2022-08-11T02:28:21;5.72;;;1.30;;
22628;SDS011;11481;53.694;9.910;2022-08-11T02:31:16;2.35;;;1.30;;
22628;SDS011;11481;53.694;9.910;2022-08-11T02:42:29;2.67;;;1.10;;
22628;SDS011;11481;53.694;9.910;2022-08-11T02:50:46;3.83;;;1.42;;
22628;SDS011;11481;53.694;9.910;2022-08-11T02:53:25;2.08;;;0.98;;
22628;SDS011;11481;53.694;9.910;2022-08-11T02:59:15;6.75;;;1.50;;
22628;SDS011;11481;53.694;9.910;2022-08-11T03:13:09;3.67;;;1.33;;
22628;SDS011;11481;53.694;9.910;2022-08-11T03:22:16;3.58;;;1.27;;
22628;SDS011;11481;53.694;9.910;2022-08-11T03:25:09;3.10;;;1.48;;
22628;SDS011;11481;53.694;9.910;2022-08-11T03:27:59;1.90;;;0.90;;
22628;SDS011;11481;53.694;9.910;2022-08-11T03:30:51;1.80;;;1.20;;
22628;SDS011;11481;53.694;9.910;2022-08-11T03:42:27;1.95;;;1.20;;
22628;SDS011;11481;53.694;9.910;2022-08-11T03:47:53;2.22;;;1.30;;
22628;SDS011;11481;53.694;9.910;2022-08-11T03:56:21;2.88;;;1.20;;
22628;SDS011;11481;53.694;9.910;2022-08-11T03:59:22;2.80;;;1.30;;
22628;SDS011;11481;53.694;9.910;2022-08-11T04:14:10;2.85;;;1.60;;
22628;SDS011;11481;53.694;9.910;2022-08-11T04:23:55;2.40;;;1.25;;
22628;SDS011;11481;53.694;9.910;2022-08-11T04:26:47;3.33;;;1.65;;
22628;SDS011;11481;53.694;9.910;2022-08-11T04:35:22;1.95;;;1.15;;
22628;SDS011;11481;53.694;9.910;2022-08-11T04:38:30;4.03;;;1.25;;
22628;SDS011;11481;53.694;9.910;2022-08-11T04:41:19;3.42;;;1.83;;
22628;SDS011;11481;53.694;9.910;2022-08-11T04:53:39;3.15;;;1.67;;
22628;SDS011;11481;53.694;9.910;2022-08-11T04:56:35;6.30;;;1.67;;
22628;SDS011;11481;53.694;9.910;2022-08-11T04:59:41;2.78;;;1.50;;
22628;SDS011;11481;53.694;9.910;2022-08-11T05:03:00;2.90;;;1.33;;
22628;SDS011;11481;53.694;9.910;2022-08-11T05:13:58;3.97;;;1.60;;
22628;SDS011;11481;53.694;9.910;2022-08-11T05:16:59;5.93;;;1.92;;
22628;SDS011;11481;53.694;9.910;2022-08-11T05:19:52;4.40;;;1.92;;
22628;SDS011;11481;53.694;9.910;2022-08-11T05:22:38;4.20;;;1.58;;
22628;SDS011;11481;53.694;9.910;2022-08-11T05:25:31;5.05;;;1.80;;
22628;SDS011;11481;53.694;9.910;2022-08-11T05:28:40;3.13;;;1.58;;
22628;SDS011;11481;53.694;9.910;2022-08-11T05:31:48;4.18;;;1.50;;
22628;SDS011;11481;53.694;9.910;2022-08-11T05:34:42;3.72;;;1.70;;
22628;SDS011;11481;53.694;9.910;2022-08-11T05:37:23;7.78;;;2.30;;
22628;SDS011;11481;53.694;9.910;2022-08-11T05:40:05;6.10;;;1.60;;
22628;SDS011;11481;53.694;9.910;2022-08-11T05:42:55;5.10;;;2.05;;
22628;SDS011;11481;53.694;9.910;2022-08-11T05:45:57;2.42;;;1.33;;
22628;SDS011;11481;53.694;9.910;2022-08-11T05:48:48;4.75;;;1.75;;
22628;SDS011;11481;53.694;9.910;2022-08-11T05:51:34;3.03;;;1.67;;
22628;SDS011;11481;53.694;9.910;2022-08-11T05:54:38;2.35;;;1.33;;
22628;SDS011;11481;53.694;9.910;2022-08-11T05:57:28;6.07;;;2.22;;
22628;SDS011;11481;53.694;9.910;2022-08-11T06:00:17;4.78;;;1.60;;
22628;SDS011;11481;53.694;9.910;2022-08-11T06:02:48;2.53;;;1.20;;
22628;SDS011;11481;53.694;9.910;2022-08-11T06:05:20;2.88;;;1.65;;
22628;SDS011;11481;53.694;9.910;2022-08-11T06:07:51;3.30;;;1.70;;
22628;SDS011;11481;53.694;9.910;2022-08-11T06:10:28;4.75;;;1.85;;
22628;SDS011;11481;53.694;9.910;2022-08-11T06:12:58;4.07;;;2.35;;
22628;SDS011;11481;53.694;9.910;2022-08-11T06:15:27;2.95;;;1.67;;
22628;SDS011;11481;53.694;9.910;2022-08-11T06:17:58;6.57;;;1.95;;
22628;SDS011;11481;53.694;9.910;2022-08-11T06:20:28;3.53;;;1.83;;
22628;SDS011;11481;53.694;9.910;2022-08-11T06:23:03;6.63;;;1.88;;
22628;SDS011;11481;53.694;9.910;2022-08-11T06:25:32;4.78;;;1.67;;
22628;SDS011;11481;53.694;9.910;2022-08-11T06:28:04;4.35;;;2.05;;
22628;SDS011;11481;53.694;9.910;2022-08-11T06:30:37;2.70;;;1.42;;
22628;SDS011;11481;53.694;9.910;2022-08-11T06:33:12;4.15;;;1.85;;
22628;SDS011;11481;53.694;9.910;2022-08-11T06:41:22;5.38;;;2.30;;
22628;SDS011;11481;53.694;9.910;2022-08-11T06:46:39;2.75;;;1.42;;
22628;SDS011;11481;53.694;9.910;2022-08-11T06:49:08;3.10;;;1.58;;
22628;SDS011;11481;53.694;9.910;2022-08-11T06:51:58;2.95;;;1.70;;
22628;SDS011;11481;53.694;9.910;2022-08-11T06:54:32;3.92;;;1.50;;
22628;SDS011;11481;53.694;9.910;2022-08-11T06:57:07;4.40;;;1.50;;
22628;SDS011;11481;53.694;9.910;2022-08-11T07:00:00;3.88;;;1.80;;
22628;SDS011;11481;53.694;9.910;2022-08-11T07:03:06;6.22;;;1.98;;
22628;SDS011;11481;53.694;9.910;2022-08-11T07:05:40;3.17;;;1.30;;
22628;SDS011;11481;53.694;9.910;2022-08-11T07:08:24;4.65;;;1.80;;
22628;SDS011;11481;53.694;9.910;2022-08-11T07:14:29;3.55;;;1.55;;
22628;SDS011;11481;53.694;9.910;2022-08-11T07:17:16;3.42;;;1.63;;
22628;SDS011;11481;53.694;9.910;2022-08-11T07:19:49;3.05;;;1.70;;
22628;SDS011;11481;53.694;9.910;2022-08-11T07:22:42;5.78;;;1.50;;
22628;SDS011;11481;53.694;9.910;2022-08-11T07:25:35;6.03;;;1.70;;
22628;SDS011;11481;53.694;9.910;2022-08-11T07:28:25;2.60;;;1.55;;
22628;SDS011;11481;53.694;9.910;2022-08-11T07:31:13;3.20;;;1.65;;
22628;SDS011;11481;53.694;9.910;2022-08-11T07:33:53;4.55;;;1.60;;
22628;SDS011;11481;53.694;9.910;2022-08-11T07:36:39;7.80;;;2.05;;
22628;SDS011;11481;53.694;9.910;2022-08-11T07:39:21;5.28;;;1.45;;
22628;SDS011;11481;53.694;9.910;2022-08-11T07:41:55;4.93;;;2.33;;
22628;SDS011;11481;53.694;9.910;2022-08-11T07:44:23;8.15;;;1.80;;
22628;SDS011;11481;53.694;9.910;2022-08-11T07:46:59;3.30;;;1.75;;
22628;SDS011;11481;53.694;9.910;2022-08-11T07:49:45;3.65;;;1.85;;
22628;SDS011;11481;53.694;9.910;2022-08-11T07:52:33;3.90;;;1.60;;
22628;SDS011;11481;53.694;9.910;2022-08-11T07:55:10;3.42;;;1.50;;
22628;SDS011;11481;53.694;9.910;2022-08-11T07:57:40;2.70;;;1.48;;
22628;SDS011;11481;53.694;9.910;2022-08-11T08:00:47;4.43;;;1.73;;
22628;SDS011;11481;53.694;9.910;2022-08-11T08:03:47;6.35;;;1.70;;
22628;SDS011;11481;53.694;9.910;2022-08-11T08:06:34;3.85;;;1.60;;
22628;SDS011;11481;53.694;9.910;2022-08-11T08:09:21;7.70;;;1.65;;
22628;SDS011;11481;53.694;9.910;2022-08-11T08:12:07;4.15;;;1.75;;
22628;SDS011;11481;53.694;9.910;2022-08-11T08:14:53;5.90;;;2.17;;
22628;SDS011;11481;53.694;9.910;2022-08-11T08:17:40;5.05;;;2.97;;
22628;SDS011;11481;53.694;9.910;2022-08-11T08:20:43;3.40;;;1.48;;
22628;SDS011;11481;53.694;9.910;2022-08-11T08:23:12;4.72;;;1.77;;
22628;SDS011;11481;53.694;9.910;2022-08-11T08:25:39;4.43;;;1.50;;
22628;SDS011;11481;53.694;9.910;2022-08-11T08:28:09;5.43;;;2.10;;
22628;SDS011;11481;53.694;9.910;2022-08-11T08:30:42;9.23;;;1.60;;
22628;SDS011;11481;53.694;9.910;2022-08-11T08:33:13;2.88;;;1.65;;
22628;SDS011;11481;53.694;9.910;2022-08-11T08:35:51;3.75;;;1.65;;
22628;SDS011;11481;53.694;9.910;2022-08-11T08:38:38;5.00;;;2.00;;
22628;SDS011;11481;53.694;9.910;2022-08-11T08:41:05;4.63;;;1.98;;
22628;SDS011;11481;53.694;9.910;2022-08-11T08:43:34;2.42;;;1.50;;
22628;SDS011;11481;53.694;9.910;2022-08-11T08:46:14;3.65;;;1.70;;
22628;SDS011;11481;53.694;9.910;2022-08-11T08:48:45;6.72;;;2.45;;
22628;SDS011;11481;53.694;9.910;2022-08-11T08:51:13;3.45;;;1.90;;
22628;SDS011;11481;53.694;9.910;2022-08-11T08:54:21;4.45;;;2.08;;
22628;SDS011;11481;53.694;9.910;2022-08-11T08:56:54;3.33;;;1.60;;
22628;SDS011;11481;53.694;9.910;2022-08-11T08:59:23;2.10;;;1.30;;
22628;SDS011;11481;53.694;9.910;2022-08-11T09:02:11;2.22;;;1.45;;
22628;SDS011;11481;53.694;9.910;2022-08-11T09:04:39;3.63;;;1.85;;
22628;SDS011;11481;53.694;9.910;2022-08-11T09:07:10;3.65;;;1.80;;
22628;SDS011;11481;53.694;9.910;2022-08-11T09:09:45;4.13;;;1.67;;
22628;SDS011;11481;53.694;9.910;2022-08-11T09:12:14;3.38;;;1.27;;
22628;SDS011;11481;53.694;9.910;2022-08-11T09:15:04;2.38;;;1.33;;
22628;SDS011;11481;53.694;9.910;2022-08-11T09:17:44;3.10;;;1.45;;
22628;SDS011;11481;53.694;9.910;2022-08-11T09:20:17;2.65;;;1.50;;
22628;SDS011;11481;53.694;9.910;2022-08-11T09:22:50;4.50;;;1.38;;
22628;SDS011;11481;53.694;9.910;2022-08-11T09:25:59;4.45;;;1.60;;
22628;SDS011;11481;53.694;9.910;2022-08-11T09:28:45;2.55;;;1.45;;
22628;SDS011;11481;53.694;9.910;2022-08-11T09:31:14;2.50;;;0.95;;
22628;SDS011;11481;53.694;9.910;2022-08-11T09:33:42;1.38;;;0.90;;
22628;SDS011;11481;53.694;9.910;2022-08-11T09:36:11;1.45;;;1.10;;
22628;SDS011;11481;53.694;9.910;2022-08-11T09:38:57;1.98;;;1.10;;
22628;SDS011;11481;53.694;9.910;2022-08-11T09:41:46;2.03;;;1.17;;
22628;SDS011;11481;53.694;9.910;2022-08-11T09:44:34;2.83;;;1.30;;
22628;SDS011;11481;53.694;9.910;2022-08-11T09:49:45;4.15;;;1.73;;
22628;SDS011;11481;53.694;9.910;2022-08-11T09:52:14;2.58;;;0.98;;
22628;SDS011;11481;53.694;9.910;2022-08-11T09:54:43;3.13;;;1.30;;
22628;SDS011;11481;53.694;9.910;2022-08-11T09:57:13;1.73;;;1.00;;
22628;SDS011;11481;53.694;9.910;2022-08-11T10:00:03;4.13;;;1.17;;
22628;SDS011;11481;53.694;9.910;2022-08-11T10:02:40;3.00;;;1.50;;
22628;SDS011;11481;53.694;9.910;2022-08-11T10:05:09;2.10;;;1.30;;
22628;SDS011;11481;53.694;9.910;2022-08-11T10:07:58;2.30;;;1.40;;
22628;SDS011;11481;53.694;9.910;2022-08-11T10:10:26;3.85;;;1.20;;
22628;SDS011;11481;53.694;9.910;2022-08-11T10:12:58;1.63;;;1.02;;
22628;SDS011;11481;53.694;9.910;2022-08-11T10:15:29;3.85;;;1.42;;
22628;SDS011;11481;53.694;9.910;2022-08-11T10:18:07;3.75;;;1.33;;
22628;SDS011;11481;53.694;9.910;2022-08-11T10:21:02;3.00;;;1.33;;
22628;SDS011;11481;53.694;9.910;2022-08-11T10:23:36;2.20;;;1.20;;
22628;SDS011;11481;53.694;9.910;2022-08-11T10:26:30;5.82;;;1.55;;
22628;SDS011;11481;53.694;9.910;2022-08-11T10:29:20;4.70;;;1.42;;
22628;SDS011;11481;53.694;9.910;2022-08-11T10:32:18;2.05;;;1.38;;
22628;SDS011;11481;53.694;9.910;2022-08-11T10:35:28;1.65;;;1.00;;
22628;SDS011;11481;53.694;9.910;2022-08-11T10:37:56;1.90;;;1.17;;
22628;SDS011;11481;53.694;9.910;2022-08-11T10:40:34;4.32;;;1.45;;
22628;SDS011;11481;53.694;9.910;2022-08-11T10:43:03;1.95;;;1.10;;
22628;SDS011;11481;53.694;9.910;2022-08-11T10:45:35;2.38;;;1.42;;
22628;SDS011;11481;53.694;9.910;2022-08-11T10:48:23;2.03;;;1.20;;
22628;SDS011;11481;53.694;9.910;2022-08-11T10:50:52;2.10;;;1.20;;
22628;SDS011;11481;53.694;9.910;2022-08-11T10:53:39;2.97;;;1.15;;
22628;SDS011;11481;53.694;9.910;2022-08-11T10:56:30;1.65;;;1.05;;
22628;SDS011;11481;53.694;9.910;2022-08-11T10:59:18;1.92;;;1.30;;
22628;SDS011;11481;53.694;9.910;2022-08-11T11:01:47;2.72;;;1.77;;
22628;SDS011;11481;53.694;9.910;2022-08-11T11:07:16;2.30;;;1.48;;
22628;SDS011;11481;53.694;9.910;2022-08-11T11:09:46;4.10;;;1.52;;
22628;SDS011;11481;53.694;9.910;2022-08-11T11:12:20;2.10;;;1.40;;
22628;SDS011;11481;53.694;9.910;2022-08-11T11:15:28;2.55;;;1.80;;
22628;SDS011;11481;53.694;9.910;2022-08-11T11:18:21;1.90;;;1.10;;
22628;SDS011;11481;53.694;9.910;2022-08-11T11:21:08;2.20;;;1.25;;
22628;SDS011;11481;53.694;9.910;2022-08-11T11:24:06;3.72;;;1.50;;
22628;SDS011;11481;53.694;9.910;2022-08-11T11:29:34;3.45;;;1.15;;
22628;SDS011;11481;53.694;9.910;2022-08-11T11:32:16;1.90;;;1.08;;
22628;SDS011;11481;53.694;9.910;2022-08-11T11:37:52;1.70;;;1.10;;
22628;SDS011;11481;53.694;9.910;2022-08-11T11:40:30;1.40;;;1.05;;
22628;SDS011;11481;53.694;9.910;2022-08-11T11:42:58;5.55;;;1.02;;
22628;SDS011;11481;53.694;9.910;2022-08-11T11:45:25;2.72;;;1.27;;
22628;SDS011;11481;53.694;9.910;2022-08-11T11:47:53;2.08;;;1.20;;
22628;SDS011;11481;53.694;9.910;2022-08-11T11:50:43;2.63;;;0.98;;
22628;SDS011;11481;53.694;9.910;2022-08-11T11:53:09;2.40;;;1.20;;
22628;SDS011;11481;53.694;9.910;2022-08-11T11:55:37;2.50;;;1.50;;
22628;SDS011;11481;53.694;9.910;2022-08-11T11:58:04;1.98;;;1.02;;
22628;SDS011;11481;53.694;9.910;2022-08-11T12:00:50;2.80;;;1.60;;
22628;SDS011;11481;53.694;9.910;2022-08-11T12:03:37;3.90;;;1.55;;
22628;SDS011;11481;53.694;9.910;2022-08-11T12:06:05;2.70;;;1.25;;
22628;SDS011;11481;53.694;9.910;2022-08-11T12:08:34;2.00;;;1.30;;
22628;SDS011;11481;53.694;9.910;2022-08-11T12:11:02;3.78;;;1.50;;
22628;SDS011;11481;53.694;9.910;2022-08-11T12:13:51;2.38;;;1.52;;
22628;SDS011;11481;53.694;9.910;2022-08-11T12:16:21;1.92;;;1.20;;
22628;SDS011;11481;53.694;9.910;2022-08-11T12:19:01;2.33;;;1.10;;
22628;SDS011;11481;53.694;9.910;2022-08-11T12:21:34;3.13;;;1.77;;
22628;SDS011;11481;53.694;9.910;2022-08-11T12:24:02;2.13;;;1.40;;
22628;SDS011;11481;53.694;9.910;2022-08-11T12:26:54;2.67;;;1.40;;
22628;SDS011;11481;53.694;9.910;2022-08-11T12:29:43;2.13;;;1.30;;
22628;SDS011;11481;53.694;9.910;2022-08-11T12:32:31;1.90;;;1.20;;
22628;SDS011;11481;53.694;9.910;2022-08-11T12:35:00;2.28;;;1.15;;
22628;SDS011;11481;53.694;9.910;2022-08-11T12:37:29;1.83;;;1.20;;
22628;SDS011;11481;53.694;9.910;2022-08-11T12:40:09;3.53;;;1.52;;
22628;SDS011;11481;53.694;9.910;2022-08-11T12:43:18;2.28;;;1.15;;
22628;SDS011;11481;53.694;9.910;2022-08-11T12:46:07;2.63;;;1.05;;
22628;SDS011;11481;53.694;9.910;2022-08-11T12:48:40;2.58;;;0.93;;
22628;SDS011;11481;53.694;9.910;2022-08-11T12:51:30;1.40;;;1.00;;
22628;SDS011;11481;53.694;9.910;2022-08-11T12:58:28;1.08;;;0.80;;
22628;SDS011;11481;53.694;9.910;2022-08-11T13:00:55;1.75;;;1.00;;
22628;SDS011;11481;53.694;9.910;2022-08-11T13:03:41;1.60;;;0.90;;
22628;SDS011;11481;53.694;9.910;2022-08-11T13:06:26;1.80;;;0.88;;
22628;SDS011;11481;53.694;9.910;2022-08-11T13:08:54;1.35;;;0.85;;
22628;SDS011;11481;53.694;9.910;2022-08-11T13:11:26;1.33;;;0.85;;
22628;SDS011;11481;53.694;9.910;2022-08-11T13:14:22;1.48;;;0.88;;
22628;SDS011;11481;53.694;9.910;2022-08-11T13:16:51;2.53;;;1.00;;
22628;SDS011;11481;53.694;9.910;2022-08-11T13:19:37;1.27;;;0.80;;
22628;SDS011;11481;53.694;9.910;2022-08-11T13:22:08;2.10;;;0.95;;
22628;SDS011;11481;53.694;9.910;2022-08-11T13:24:36;4.90;;;1.02;;
22628;SDS011;11481;53.694;9.910;2022-08-11T13:27:04;1.08;;;0.70;;
22628;SDS011;11481;53.694;9.910;2022-08-11T13:29:32;1.40;;;0.65;;
22628;SDS011;11481;53.694;9.910;2022-08-11T13:32:01;2.17;;;0.82;;
22628;SDS011;11481;53.694;9.910;2022-08-11T13:34:28;1.88;;;0.82;;
22628;SDS011;11481;53.694;9.910;2022-08-11T13:36:57;1.75;;;0.68;;
22628;SDS011;11481;53.694;9.910;2022-08-11T13:39:27;8.38;;;1.00;;
22628;SDS011;11481;53.694;9.910;2022-08-11T13:41:56;5.43;;;1.08;;
22628;SDS011;11481;53.694;9.910;2022-08-11T13:44:26;2.58;;;0.90;;
22628;SDS011;11481;53.694;9.910;2022-08-11T13:46:56;2.30;;;1.02;;
22628;SDS011;11481;53.694;9.910;2022-08-11T13:49:26;1.73;;;0.90;;
22628;SDS011;11481;53.694;9.910;2022-08-11T13:51:54;1.40;;;0.88;;
22628;SDS011;11481;53.694;9.910;2022-08-11T13:54:22;2.53;;;0.85;;
22628;SDS011;11481;53.694;9.910;2022-08-11T13:56:52;1.27;;;0.70;;
22628;SDS011;11481;53.694;9.910;2022-08-11T13:59:22;2.92;;;0.75;;
22628;SDS011;11481;53.694;9.910;2022-08-11T14:01:57;4.13;;;1.10;;
22628;SDS011;11481;53.694;9.910;2022-08-11T14:07:20;1.15;;;0.75;;
22628;SDS011;11481;53.694;9.910;2022-08-11T14:09:52;1.42;;;0.77;;
22628;SDS011;11481;53.694;9.910;2022-08-11T14:12:25;2.55;;;1.00;;
22628;SDS011;11481;53.694;9.910;2022-08-11T14:18:02;1.23;;;0.75;;
22628;SDS011;11481;53.694;9.910;2022-08-11T14:20:33;2.58;;;0.93;;
22628;SDS011;11481;53.694;9.910;2022-08-11T14:23:23;1.98;;;0.65;;
22628;SDS011;11481;53.694;9.910;2022-08-11T14:26:12;2.10;;;1.10;;
22628;SDS011;11481;53.694;9.910;2022-08-11T14:31:21;1.83;;;0.70;;
22628;SDS011;11481;53.694;9.910;2022-08-11T14:33:53;2.05;;;1.00;;
22628;SDS011;11481;53.694;9.910;2022-08-11T14:36:30;1.95;;;0.85;;
22628;SDS011;11481;53.694;9.910;2022-08-11T14:39:05;1.65;;;0.90;;
22628;SDS011;11481;53.694;9.910;2022-08-11T14:41:42;1.58;;;1.13;;
22628;SDS011;11481;53.694;9.910;2022-08-11T14:44:38;6.05;;;1.10;;
22628;SDS011;11481;53.694;9.910;2022-08-11T14:47:26;2.53;;;1.00;;
22628;SDS011;11481;53.694;9.910;2022-08-11T14:49:56;4.32;;;0.98;;
22628;SDS011;11481;53.694;9.910;2022-08-11T14:52:38;1.27;;;0.95;;
22628;SDS011;11481;53.694;9.910;2022-08-11T14:55:14;2.33;;;0.98;;
22628;SDS011;11481;53.694;9.910;2022-08-11T14:58:02;2.75;;;1.20;;
22628;SDS011;11481;53.694;9.910;2022-08-11T15:00:31;4.32;;;0.90;;
22628;SDS011;11481;53.694;9.910;2022-08-11T15:02:59;1.55;;;1.00;;
22628;SDS011;11481;53.694;9.910;2022-08-11T15:08:23;0.75;;;0.70;;
22628;SDS011;11481;53.694;9.910;2022-08-11T15:11:14;0.95;;;0.82;;
22628;SDS011;11481;53.694;9.910;2022-08-11T15:14:02;2.00;;;1.13;;
22628;SDS011;11481;53.694;9.910;2022-08-11T15:16:31;3.85;;;1.00;;
22628;SDS011;11481;53.694;9.910;2022-08-11T15:19:17;3.17;;;1.10;;
22628;SDS011;11481;53.694;9.910;2022-08-11T15:21:48;3.03;;;0.90;;
22628;SDS011;11481;53.694;9.910;2022-08-11T15:24:34;2.65;;;0.82;;
22628;SDS011;11481;53.694;9.910;2022-08-11T15:27:03;2.55;;;1.20;;
22628;SDS011;11481;53.694;9.910;2022-08-11T15:29:52;1.30;;;0.90;;
22628;SDS011;11481;53.694;9.910;2022-08-11T15:33:00;2.35;;;1.00;;
22628;SDS011;11481;53.694;9.910;2022-08-11T15:35:48;1.77;;;1.10;;
22628;SDS011;11481;53.694;9.910;2022-08-11T15:38:38;3.17;;;1.00;;
22628;SDS011;11481;53.694;9.910;2022-08-11T15:41:12;1.70;;;1.08;;
22628;SDS011;11481;53.694;9.910;2022-08-11T15:44:01;3.00;;;1.08;;
22628;SDS011;11481;53.694;9.910;2022-08-11T15:47:10;1.48;;;0.90;;
22628;SDS011;11481;53.694;9.910;2022-08-11T15:49:39;1.48;;;0.95;;
22628;SDS011;11481;53.694;9.910;2022-08-11T15:52:30;1.10;;;0.80;;
22628;SDS011;11481;53.694;9.910;2022-08-11T15:55:01;1.88;;;1.20;;
22628;SDS011;11481;53.694;9.910;2022-08-11T15:57:34;1.52;;;1.05;;
22628;SDS011;11481;53.694;9.910;2022-08-11T16:00:20;2.33;;;0.98;;
22628;SDS011;11481;53.694;9.910;2022-08-11T16:03:06;1.30;;;0.90;;
22628;SDS011;11481;53.694;9.910;2022-08-11T16:06:23;2.47;;;1.08;;
22628;SDS011;11481;53.694;9.910;2022-08-11T16:08:52;1.15;;;0.85;;
22628;SDS011;11481;53.694;9.910;2022-08-11T16:11:21;1.40;;;1.08;;
22628;SDS011;11481;53.694;9.910;2022-08-11T16:13:49;1.38;;;0.73;;
22628;SDS011;11481;53.694;9.910;2022-08-11T16:16:35;2.10;;;1.10;;
22628;SDS011;11481;53.694;9.910;2022-08-11T16:19:04;1.27;;;0.98;;
22628;SDS011;11481;53.694;9.910;2022-08-11T16:21:36;1.73;;;1.08;;
22628;SDS011;11481;53.694;9.910;2022-08-11T16:24:06;3.45;;;0.93;;
22628;SDS011;11481;53.694;9.910;2022-08-11T16:26:55;4.70;;;1.10;;
22628;SDS011;11481;53.694;9.910;2022-08-11T16:29:37;2.47;;;1.30;;
22628;SDS011;11481;53.694;9.910;2022-08-11T16:32:09;3.28;;;0.90;;
22628;SDS011;11481;53.694;9.910;2022-08-11T16:34:47;2.53;;;1.20;;
22628;SDS011;11481;53.694;9.910;2022-08-11T16:37:36;4.60;;;1.00;;
22628;SDS011;11481;53.694;9.910;2022-08-11T16:40:23;1.52;;;1.02;;
22628;SDS011;11481;53.694;9.910;2022-08-11T16:42:51;1.30;;;0.80;;
22628;SDS011;11481;53.694;9.910;2022-08-11T16:45:39;1.77;;;1.10;;
22628;SDS011;11481;53.694;9.910;2022-08-11T16:48:27;1.60;;;1.15;;
22628;SDS011;11481;53.694;9.910;2022-08-11T16:51:03;1.23;;;0.95;;
22628;SDS011;11481;53.694;9.910;2022-08-11T16:53:31;2.90;;;1.10;;
22628;SDS011;11481;53.694;9.910;2022-08-11T16:56:19;1.95;;;1.20;;
22628;SDS011;11481;53.694;9.910;2022-08-11T16:58:51;2.88;;;1.13;;
22628;SDS011;11481;53.694;9.910;2022-08-11T17:01:41;1.13;;;0.82;;
22628;SDS011;11481;53.694;9.910;2022-08-11T17:04:27;2.28;;;1.15;;
22628;SDS011;11481;53.694;9.910;2022-08-11T17:07:15;4.10;;;0.90;;
22628;SDS011;11481;53.694;9.910;2022-08-11T17:10:06;2.00;;;0.93;;
22628;SDS011;11481;53.694;9.910;2022-08-11T17:13:27;4.00;;;0.88;;
22628;SDS011;11481;53.694;9.910;2022-08-11T17:16:02;6.30;;;1.10;;
22628;SDS011;11481;53.694;9.910;2022-08-11T17:18:39;1.38;;;0.90;;
22628;SDS011;11481;53.694;9.910;2022-08-11T17:21:18;1.95;;;0.93;;
22628;SDS011;11481;53.694;9.910;2022-08-11T17:23:59;1.67;;;1.13;;
22628;SDS011;11481;53.694;9.910;2022-08-11T17:29:25;2.10;;;0.90;;
22628;SDS011;11481;53.694;9.910;2022-08-11T17:31:54;1.33;;;1.00;;
22628;SDS011;11481;53.694;9.910;2022-08-11T17:34:41;1.83;;;1.00;;
22628;SDS011;11481;53.694;9.910;2022-08-11T17:37:28;1.50;;;0.90;;
22628;SDS011;11481;53.694;9.910;2022-08-11T17:39:58;1.45;;;0.80;;
22628;SDS011;11481;53.694;9.910;2022-08-11T17:42:27;2.45;;;1.45;;
22628;SDS011;11481;53.694;9.910;2022-08-11T17:45:16;2.83;;;1.10;;
22628;SDS011;11481;53.694;9.910;2022-08-11T17:48:03;2.72;;;0.80;;
22628;SDS011;11481;53.694;9.910;2022-08-11T17:50:57;1.40;;;0.98;;
22628;SDS011;11481;53.694;9.910;2022-08-11T17:53:28;2.10;;;1.00;;
22628;SDS011;11481;53.694;9.910;2022-08-11T17:56:38;2.05;;;1.10;;
22628;SDS011;11481;53.694;9.910;2022-08-11T17:59:24;1.02;;;0.80;;
22628;SDS011;11481;53.694;9.910;2022-08-11T18:02:14;3.10;;;1.20;;
22628;SDS011;11481;53.694;9.910;2022-08-11T18:05:02;2.70;;;0.80;;
22628;SDS011;11481;53.694;9.910;2022-08-11T18:07:39;7.80;;;1.10;;
22628;SDS011;11481;53.694;9.910;2022-08-11T18:10:27;2.22;;;0.90;;
22628;SDS011;11481;53.694;9.910;2022-08-11T18:13:19;1.00;;;0.70;;
22628;SDS011;11481;53.694;9.910;2022-08-11T18:16:06;2.45;;;0.88;;
22628;SDS011;11481;53.694;9.910;2022-08-11T18:18:53;2.65;;;1.08;;
22628;SDS011;11481;53.694;9.910;2022-08-11T18:21:40;1.92;;;1.08;;
22628;SDS011;11481;53.694;9.910;2022-08-11T18:24:42;2.20;;;0.60;;
22628;SDS011;11481;53.694;9.910;2022-08-11T18:27:34;1.23;;;0.80;;
22628;SDS011;11481;53.694;9.910;2022-08-11T18:30:24;0.77;;;0.57;;
22628;SDS011;11481;53.694;9.910;2022-08-11T18:33:10;1.42;;;0.80;;
22628;SDS011;11481;53.694;9.910;2022-08-11T18:36:20;2.00;;;1.00;;
22628;SDS011;11481;53.694;9.910;2022-08-11T18:39:08;1.20;;;0.90;;
22628;SDS011;11481;53.694;9.910;2022-08-11T18:41:57;1.88;;;1.00;;
22628;SDS011;11481;53.694;9.910;2022-08-11T18:44:55;1.42;;;0.77;;
22628;SDS011;11481;53.694;9.910;2022-08-11T18:47:56;1.42;;;0.80;;
22628;SDS011;11481;53.694;9.910;2022-08-11T18:50:45;5.95;;;1.02;;
22628;SDS011;11481;53.694;9.910;2022-08-11T18:53:55;3.05;;;0.82;;
22628;SDS011;11481;53.694;9.910;2022-08-11T18:56:44;0.98;;;0.75;;
22628;SDS011;11481;53.694;9.910;2022-08-11T18:59:31;2.92;;;1.00;;
22628;SDS011;11481;53.694;9.910;2022-08-11T19:02:20;3.90;;;1.00;;
22628;SDS011;11481;53.694;9.910;2022-08-11T19:05:15;1.50;;;0.80;;
22628;SDS011;11481;53.694;9.910;2022-08-11T19:08:22;2.30;;;0.77;;
22628;SDS011;11481;53.694;9.910;2022-08-11T19:11:14;2.75;;;0.90;;
22628;SDS011;11481;53.694;9.910;2022-08-11T19:14:08;2.75;;;0.90;;
22628;SDS011;11481;53.694;9.910;2022-08-11T19:16:59;1.42;;;0.60;;
22628;SDS011;11481;53.694;9.910;2022-08-11T19:20:07;3.58;;;0.90;;
22628;SDS011;11481;53.694;9.910;2022-08-11T19:23:04;1.13;;;0.70;;
22628;SDS011;11481;53.694;9.910;2022-08-11T19:25:51;4.53;;;0.77;;
22628;SDS011;11481;53.694;9.910;2022-08-11T19:28:37;2.17;;;0.70;;
22628;SDS011;11481;53.694;9.910;2022-08-11T19:31:25;3.67;;;0.70;;
22628;SDS011;11481;53.694;9.910;2022-08-11T19:34:15;1.17;;;0.80;;
22628;SDS011;11481;53.694;9.910;2022-08-11T19:37:03;1.80;;;0.75;;
22628;SDS011;11481;53.694;9.910;2022-08-11T19:39:51;1.73;;;0.90;;
22628;SDS011;11481;53.694;9.910;2022-08-11T19:42:39;3.05;;;0.77;;